createdAt,value
2023-03-17T00:03:17.136Z,67.96
2023-03-17T00:07:19.496Z,67.74
2023-03-17T00:11:22.282Z,67.20
2023-03-17T00:15:27.148Z,67.14
2023-03-17T00:19:32.084Z,67.09
2023-03-17T00:23:35.226Z,67.17
2023-03-17T00:27:37.208Z,67.13
2023-03-17T00:31:39.661Z,67.28
2023-03-17T00:35:43.588Z,67.54
2023-03-17T00:39:45.631Z,67.82
2023-03-17T00:43:47.686Z,67.84
2023-03-17T00:47:52.022Z,67.99
2023-03-17T00:51:54.258Z,69.53
2023-03-17T00:55:57.270Z,68.87
2023-03-17T00:59:59.513Z,67.95
2023-03-17T01:04:03.093Z,67.48
2023-03-17T01:08:05.565Z,67.26
2023-03-17T01:12:12.565Z,66.82
2023-03-17T01:16:15.587Z,66.81
2023-03-17T01:20:23.639Z,66.85
2023-03-17T01:24:26.604Z,67.07
2023-03-17T01:28:28.804Z,66.88
2023-03-17T01:32:30.949Z,67.18
2023-03-17T01:36:33.075Z,67.23
2023-03-17T01:40:42.401Z,66.98
2023-03-17T01:45:01.932Z,67.22
2023-03-17T01:49:14.449Z,68.38
2023-03-17T01:53:16.505Z,67.14
2023-03-17T01:57:23.344Z,66.91
2023-03-17T02:01:30.592Z,66.88
2023-03-17T02:05:33.289Z,66.65
2023-03-17T02:09:35.794Z,66.42
2023-03-17T02:13:38.497Z,66.70
2023-03-17T02:17:40.498Z,67.14
2023-03-17T02:21:50.482Z,67.28
2023-03-17T02:25:54.047Z,67.79
2023-03-17T02:29:56.067Z,67.61
2023-03-17T02:33:58.070Z,68.25
2023-03-17T02:38:00.990Z,68.06
2023-03-17T02:42:06.172Z,68.17
2023-03-17T02:46:09.476Z,68.24
2023-03-17T02:50:22.093Z,68.53
2023-03-17T02:54:24.087Z,68.86
2023-03-17T02:58:26.090Z,68.96
2023-03-17T03:02:28.282Z,69.29
2023-03-17T03:06:31.635Z,69.13
2023-03-17T03:10:33.897Z,69.28
2023-03-17T03:14:36.658Z,69.50
2023-03-17T03:18:39.038Z,69.43
2023-03-17T03:22:41.103Z,70.00
2023-03-17T03:26:43.082Z,69.93
2023-03-17T03:30:45.783Z,70.24
2023-03-17T03:34:47.746Z,70.39
2023-03-17T03:38:49.744Z,70.46
2023-03-17T03:42:51.790Z,70.84
2023-03-17T03:46:53.764Z,71.19
2023-03-17T03:51:00.849Z,71.17
2023-03-17T03:55:03.139Z,71.21
2023-03-17T03:59:05.122Z,71.25
2023-03-17T04:03:07.602Z,71.60
2023-03-17T04:07:09.941Z,71.80
2023-03-17T04:11:11.987Z,72.04
2023-03-17T04:15:16.359Z,72.16
2023-03-17T04:19:18.429Z,72.27
2023-03-17T04:23:20.622Z,72.45
2023-03-17T04:27:22.890Z,72.17
2023-03-17T04:31:24.968Z,72.41
2023-03-17T04:35:27.103Z,72.26
2023-03-17T04:39:29.113Z,72.19
2023-03-17T04:43:31.167Z,72.33
2023-03-17T04:47:33.641Z,72.48
2023-03-17T04:51:36.843Z,72.54
2023-03-17T04:55:38.859Z,72.83
2023-03-17T04:59:40.929Z,72.93
2023-03-17T05:03:43.144Z,73.81
2023-03-17T05:07:45.388Z,74.32
2023-03-17T05:11:47.398Z,74.33
2023-03-17T05:15:51.724Z,74.08
2023-03-17T05:19:53.751Z,74.10
2023-03-17T05:23:55.810Z,74.13
2023-03-17T05:27:58.661Z,74.46
2023-03-17T05:32:00.656Z,74.32
2023-03-17T05:36:03.509Z,74.75
2023-03-17T05:40:05.703Z,74.95
2023-03-17T05:44:08.530Z,74.94
2023-03-17T05:48:12.306Z,74.77
2023-03-17T05:52:14.684Z,74.72
2023-03-17T05:56:17.124Z,74.89
2023-03-17T06:00:20.966Z,74.76
2023-03-17T06:04:23.073Z,74.68
2023-03-17T06:08:25.140Z,74.38
2023-03-17T06:12:27.202Z,76.83
2023-03-17T06:16:30.789Z,74.71
2023-03-17T06:20:33.842Z,73.74
2023-03-17T06:24:36.122Z,73.39
2023-03-17T06:28:38.248Z,73.16
2023-03-17T06:32:40.516Z,72.63
2023-03-17T06:36:43.415Z,73.03
2023-03-17T06:40:45.387Z,72.50
2023-03-17T06:44:47.831Z,71.73
2023-03-17T06:48:49.818Z,71.73
2023-03-17T06:52:51.983Z,71.40
2023-03-17T06:56:54.016Z,71.64
2023-03-17T07:00:56.034Z,70.78
2023-03-17T07:04:58.199Z,70.53
2023-03-17T07:09:02.190Z,70.25
2023-03-17T07:13:07.631Z,69.71
2023-03-17T07:17:14.470Z,69.05
2023-03-17T07:21:16.656Z,78.36
2023-03-17T07:25:19.500Z,71.05
2023-03-17T07:29:22.646Z,67.38
2023-03-17T07:33:25.138Z,66.27
2023-03-17T07:37:27.282Z,66.08
2023-03-17T07:41:29.986Z,65.64
2023-03-17T07:45:35.230Z,65.43
2023-03-17T07:49:41.742Z,65.34
2023-03-17T07:53:45.104Z,65.04
2023-03-17T07:57:47.155Z,64.89
2023-03-17T08:01:50.568Z,64.68
2023-03-17T08:05:55.823Z,64.53
2023-03-17T08:09:58.074Z,64.44
2023-03-17T08:14:01.449Z,63.66
2023-03-17T08:18:03.712Z,63.70
2023-03-17T08:22:05.699Z,63.30
2023-03-17T08:26:08.408Z,63.10
2023-03-17T08:30:11.310Z,62.69
2023-03-17T08:34:13.336Z,62.37
2023-03-17T08:38:15.332Z,61.72
2023-03-17T08:42:17.295Z,61.61
2023-03-17T08:46:25.056Z,61.07
2023-03-17T08:50:27.310Z,60.84
2023-03-17T08:54:29.472Z,60.31
2023-03-17T08:58:31.547Z,59.43
2023-03-17T09:02:33.588Z,58.63
2023-03-17T09:06:35.796Z,58.12
2023-03-17T09:10:37.813Z,57.45
2023-03-17T09:14:44.168Z,56.66
2023-03-17T09:18:46.787Z,55.51
2023-03-17T09:22:49.117Z,55.12
2023-03-17T09:26:51.095Z,54.05
2023-03-17T09:30:58.189Z,53.90
2023-03-17T09:35:00.868Z,53.80
2023-03-17T09:39:03.028Z,53.41
2023-03-17T09:43:26.518Z,53.10
2023-03-17T09:48:06.887Z,52.60
2023-03-17T09:52:14.956Z,52.01
2023-03-17T09:56:18.807Z,51.98
2023-03-17T10:00:26.625Z,52.00
2023-03-17T10:04:28.970Z,51.51
2023-03-17T10:08:36.164Z,51.39
2023-03-17T10:13:16.594Z,51.08
2023-03-17T10:17:26.045Z,50.80
2023-03-17T10:21:43.630Z,50.55
2023-03-17T10:25:46.274Z,50.19
2023-03-17T10:29:48.709Z,49.93
2023-03-17T10:33:52.317Z,49.62
2023-03-17T10:38:07.969Z,49.59
2023-03-17T10:42:29.130Z,49.50
2023-03-17T10:46:33.093Z,49.06
2023-03-17T10:50:40.928Z,49.09
2023-03-17T10:54:47.540Z,48.59
2023-03-17T10:58:51.893Z,48.33
2023-03-17T11:02:59.390Z,48.08
2023-03-17T11:07:09.984Z,47.78
2023-03-17T11:11:36.152Z,48.40
2023-03-17T11:15:43.254Z,47.81
2023-03-17T11:20:04.228Z,47.95
2023-03-17T11:24:12.580Z,47.78
2023-03-17T11:28:19.758Z,47.68
2023-03-17T11:32:57.324Z,47.07
2023-03-17T11:37:16.831Z,47.01
2023-03-17T11:41:31.282Z,47.02
2023-03-17T11:45:48.987Z,47.53
2023-03-17T11:50:28.802Z,46.48
2023-03-17T11:55:00.019Z,47.03
2023-03-17T11:59:07.124Z,47.02
2023-03-17T12:03:40.196Z,47.05
2023-03-17T12:07:48.143Z,46.79
2023-03-17T12:11:51.465Z,46.68
2023-03-17T12:16:00.039Z,46.09
2023-03-17T12:20:09.522Z,45.97
2023-03-17T12:24:20.010Z,45.70
2023-03-17T12:28:28.371Z,45.35
2023-03-17T12:32:56.238Z,45.31
2023-03-17T12:36:58.526Z,45.01
2023-03-17T12:41:27.259Z,45.08
2023-03-17T12:45:41.559Z,45.06
2023-03-17T12:50:06.911Z,44.33
2023-03-17T12:54:18.540Z,44.51
2023-03-17T12:58:29.708Z,43.99
2023-03-17T13:02:39.172Z,44.00
2023-03-17T13:06:41.144Z,44.66
2023-03-17T13:10:51.103Z,44.96
2023-03-17T13:14:54.260Z,45.19
2023-03-17T13:19:16.227Z,44.63
2023-03-17T13:23:22.024Z,45.23
2023-03-17T13:27:29.973Z,45.04
2023-03-17T13:31:36.252Z,44.89
2023-03-17T13:35:57.009Z,44.86
2023-03-17T13:40:21.344Z,45.20
2023-03-17T13:44:37.593Z,44.67
2023-03-17T13:48:40.728Z,45.11
2023-03-17T13:52:49.464Z,45.00
2023-03-17T13:56:53.813Z,46.09
2023-03-17T14:00:59.752Z,45.48
2023-03-17T14:05:17.114Z,44.88
2023-03-17T14:09:31.296Z,43.90
2023-03-17T14:13:53.652Z,44.27
2023-03-17T14:18:15.326Z,44.17
2023-03-17T14:22:25.270Z,43.86
2023-03-17T14:26:32.166Z,43.85
2023-03-17T14:30:36.243Z,43.84
2023-03-17T14:34:45.851Z,43.95
2023-03-17T14:38:53.290Z,43.07
2023-03-17T14:42:55.681Z,43.15
2023-03-17T14:47:07.154Z,43.41
2023-03-17T14:51:26.590Z,43.36
2023-03-17T14:55:35.829Z,43.25
2023-03-17T14:59:40.531Z,43.54
2023-03-17T15:03:56.224Z,43.33
2023-03-17T15:07:58.351Z,43.80
2023-03-17T15:12:18.882Z,43.87
2023-03-17T15:16:25.417Z,43.50
2023-03-17T15:20:28.636Z,44.12
2023-03-17T15:24:41.506Z,44.08
2023-03-17T15:28:43.550Z,43.75
2023-03-17T15:32:52.006Z,43.82
2023-03-17T15:36:54.272Z,43.29
2023-03-17T15:40:57.303Z,43.77
2023-03-17T15:45:03.661Z,44.11
2023-03-17T15:49:10.630Z,44.11
2023-03-17T15:53:13.844Z,44.52
2023-03-17T15:57:16.363Z,44.93
2023-03-17T16:01:19.631Z,44.77
2023-03-17T16:05:27.752Z,44.81
2023-03-17T16:09:29.756Z,45.07
2023-03-17T16:13:31.737Z,45.77
2023-03-17T16:17:33.892Z,45.79
2023-03-17T16:21:37.169Z,45.87
2023-03-17T16:25:39.168Z,46.28
2023-03-17T16:29:41.217Z,46.42
2023-03-17T16:33:43.219Z,46.64
2023-03-17T16:37:46.001Z,46.61
2023-03-17T16:41:53.341Z,46.75
2023-03-17T16:45:57.053Z,46.83
2023-03-17T16:49:58.960Z,46.87
2023-03-17T16:54:00.950Z,47.13
2023-03-17T16:58:13.835Z,47.17
2023-03-17T17:02:16.310Z,47.07
2023-03-17T17:06:19.557Z,47.12
2023-03-17T17:10:22.079Z,47.47
2023-03-17T17:14:24.081Z,47.95
2023-03-17T17:18:26.152Z,48.26
2023-03-17T17:22:29.207Z,48.79
2023-03-17T17:26:31.300Z,49.53
2023-03-17T17:30:34.116Z,49.28
2023-03-17T17:34:36.517Z,48.78
2023-03-17T17:38:38.558Z,48.80
2023-03-17T17:42:40.839Z,49.27
2023-03-17T17:46:42.842Z,49.45
2023-03-17T17:50:45.616Z,49.46
2023-03-17T17:54:47.772Z,49.62
2023-03-17T17:58:50.450Z,50.28
2023-03-17T18:02:52.508Z,50.84
2023-03-17T18:06:54.525Z,51.34
2023-03-17T18:10:57.147Z,51.50
2023-03-17T18:14:59.184Z,51.92
2023-03-17T18:19:02.547Z,51.83
2023-03-17T18:23:04.576Z,51.89
2023-03-17T18:27:07.631Z,51.96
2023-03-17T18:31:14.326Z,52.03
2023-03-17T18:35:19.365Z,51.93
2023-03-17T18:39:21.477Z,51.70
2023-03-17T18:43:23.475Z,52.11
2023-03-17T18:47:25.684Z,52.24
2023-03-17T18:51:27.714Z,51.87
2023-03-17T18:55:29.728Z,51.78
2023-03-17T18:59:31.800Z,51.46
2023-03-17T19:03:33.886Z,51.03
2023-03-17T19:07:37.967Z,51.13
2023-03-17T19:11:41.949Z,51.03
2023-03-17T19:15:43.941Z,51.44
2023-03-17T19:19:46.288Z,51.70
2023-03-17T19:23:48.820Z,51.96
2023-03-17T19:27:50.795Z,53.04
2023-03-17T19:31:52.796Z,53.46
2023-03-17T19:35:56.884Z,53.09
2023-03-17T19:39:59.103Z,53.03
2023-03-17T19:44:02.172Z,52.76
2023-03-17T19:48:04.996Z,52.51
2023-03-17T19:52:07.994Z,52.48
2023-03-17T19:56:10.834Z,52.60
2023-03-17T20:00:13.817Z,52.70
2023-03-17T20:04:20.884Z,53.19
2023-03-17T20:08:24.569Z,54.00
2023-03-17T20:12:26.762Z,54.89
2023-03-17T20:16:31.875Z,55.41
2023-03-17T20:20:34.245Z,56.01
2023-03-17T20:24:36.384Z,56.56
2023-03-17T20:28:38.716Z,57.23
2023-03-17T20:32:40.818Z,57.64
2023-03-17T20:36:43.049Z,58.29
2023-03-17T20:40:45.339Z,58.94
2023-03-17T20:44:52.723Z,59.87
2023-03-17T20:48:58.756Z,60.85
2023-03-17T20:53:01.589Z,61.40
2023-03-17T20:57:04.717Z,61.36
2023-03-17T21:01:10.037Z,61.13
2023-03-17T21:05:17.897Z,61.01
2023-03-17T21:09:20.158Z,61.07
2023-03-17T21:13:22.207Z,61.18
2023-03-17T21:17:24.465Z,62.39
2023-03-17T21:21:27.235Z,62.43
2023-03-17T21:25:29.271Z,62.88
2023-03-17T21:29:33.350Z,63.16
2023-03-17T21:33:35.429Z,63.75
2023-03-17T21:37:37.549Z,63.67
2023-03-17T21:41:40.827Z,63.59
2023-03-17T21:45:44.140Z,63.18
2023-03-17T21:49:46.802Z,63.65
2023-03-17T21:53:49.226Z,63.15
2023-03-17T21:57:51.205Z,62.74
2023-03-17T22:01:53.568Z,62.54
2023-03-17T22:05:56.603Z,62.43
2023-03-17T22:10:00.727Z,62.24
2023-03-17T22:14:03.055Z,62.25
2023-03-17T22:18:05.883Z,61.88
2023-03-17T22:22:08.405Z,62.06
2023-03-17T22:26:18.580Z,61.79
2023-03-17T22:30:21.132Z,61.81
2023-03-17T22:34:23.637Z,62.32
2023-03-17T22:38:25.639Z,62.60
2023-03-17T22:42:27.944Z,62.45
2023-03-17T22:46:30.092Z,63.36
2023-03-17T22:50:32.205Z,63.46
2023-03-17T22:54:34.402Z,64.03
2023-03-17T22:58:36.523Z,64.58
2023-03-17T23:02:38.567Z,64.46
2023-03-17T23:06:40.736Z,64.86
2023-03-17T23:10:43.115Z,64.72
2023-03-17T23:14:45.308Z,64.71
2023-03-17T23:18:47.689Z,64.50
2023-03-17T23:22:49.711Z,65.29
2023-03-17T23:26:52.302Z,65.28
2023-03-17T23:30:55.132Z,64.65
2023-03-17T23:34:57.566Z,64.49
2023-03-17T23:39:00.524Z,64.26
2023-03-17T23:43:02.506Z,64.06
2023-03-17T23:47:04.855Z,64.36
2023-03-17T23:51:06.854Z,64.43
2023-03-17T23:55:11.704Z,64.49
2023-03-17T23:59:13.753Z,64.81
